Flight Track Log - Related Links

Times and Time Zones

All times are in EDT time to prevent confusion due to time zone crossing. See the N825TD flight status page for this flight to view local times or setup timezone preferences in your user account.

Time Position Orientation Groundspeed Altitude Reporting Facility
EDT Latitude Longitude Course Direction KTS MPH feet Rate Location/Type
Tue 01:59:47 AM 29.1500 -81.0167 199° South 121 139 3,800  Level Orlando TRACON
Tue 02:00:47 AM 29.1167 -81.0333 204° Southwest 121 139 4,800 950 Climbing Orlando TRACON
Tue 02:01:47 AM 29.1000 -81.0500 221° Southwest 122 140 5,700 600 Climbing Orlando TRACON
Tue 02:02:47 AM 29.0833 -81.1000 249° West 138 159 6,000 150 Climbing Orlando TRACON
Tue 02:03:47 AM 29.0500 -81.1333 221° Southwest 160 184 6,000  Level Orlando TRACON
Tue 02:04:47 AM 29.0333 -81.1833 249° West 159 183 6,000  Level Orlando TRACON
Tue 02:05:47 AM 29.0000 -81.2167 221° Southwest 162 186 6,000  Level Orlando TRACON
Tue 02:06:47 AM 28.9833 -81.2667 249° West 159 183 6,000 -50 Level Orlando TRACON
Tue 02:07:47 AM 28.9500 -81.2833 204° Southwest 159 183 5,900 -50 Descending Orlando TRACON
Tue 02:08:47 AM 28.9000 -81.2833 180° South 158 182 5,900 50 Level Orlando TRACON
Tue 02:09:47 AM 28.8500 -81.3000 196° South 157 181 6,000 50 Climbing Orlando TRACON
Tue 02:10:47 AM 28.8167 -81.3000 180° South 156 180 6,000  Level Orlando TRACON
Tue 02:11:47 AM 28.7667 -81.3167 196° South 156 180 6,000  Level Orlando TRACON
Tue 02:12:47 AM 28.7333 -81.3167 180° South 157 181 6,000  Level Orlando TRACON
Tue 02:13:47 AM 28.6833 -81.3333 196° South 157 181 6,000  Level Orlando TRACON
Tue 02:14:47 AM 28.6500 -81.3333 180° South 157 181 6,000  Level Orlando TRACON
Tue 02:15:47 AM 28.6000 -81.3500 196° South 156 180 6,000  Level Orlando TRACON
Tue 02:16:47 AM 28.5500 -81.3500 180° South 157 181 6,000  Level Orlando TRACON
Tue 02:17:47 AM 28.5167 -81.3500 180° South 157 181 6,000  Level Orlando TRACON
Tue 02:18:47 AM 28.4667 -81.3667 196° South 156 180 6,000 -50 Level Orlando TRACON
Tue 02:19:48 AM 28.4333 -81.3667 180° South 158 182 5,900  Descending Orlando TRACON
Tue 02:20:48 AM 28.3833 -81.3833 196° South 156 180 6,000 50 Climbing Orlando TRACON
Tue 02:21:48 AM 28.3333 -81.3833 180° South 157 181 6,000  Level Orlando TRACON
Tue 02:22:48 AM 28.3000 -81.4000 204° Southwest 156 180 6,000  Level Orlando TRACON
Tue 02:23:48 AM 28.2500 -81.4000 180° South 157 181 6,000  Level Orlando TRACON
Tue 02:24:48 AM 28.2167 -81.4167 204° Southwest 160 184 6,000  Level Orlando TRACON
Tue 02:25:48 AM 28.1667 -81.4167 180° South 159 183 6,000 -37 Level Orlando TRACON
Tue 02:27:32 AM 28.0983 -81.4344 193° South 171 197 5,900  Descending Miami Center
Tue 02:28:31 AM 28.0544 -81.4419 189° South 171 197 6,000 51 Climbing Miami Center
Tue 02:29:30 AM 28.0103 -81.4497 189° South 160 184 6,000  Level Miami Center
Tue 02:30:30 AM 27.9661 -81.4572 189° South 160 184 6,000  Level Miami Center
Tue 02:31:30 AM 27.9200 -81.4647 188° South 160 184 6,000  Level Miami Center
Tue 02:32:30 AM 27.8781 -81.4725 189° South 160 184 6,000  Level Miami Center
Tue 02:33:30 AM 27.8339 -81.4800 189° South 160 184 6,000  Level Miami Center
Tue 02:34:30 AM 27.7900 -81.4878 189° South 160 184 6,000  Level Miami Center
Tue 02:35:30 AM 27.7478 -81.4978 192° South 160 184 6,000  Level Miami Center
Tue 02:36:30 AM 27.7036 -81.5075 191° South 165 190 6,000  Level Miami Center
Tue 02:37:30 AM 27.6597 -81.5128 186° South 165 190 6,000  Level Miami Center
Tue 02:38:30 AM 27.6156 -81.5206 189° South 160 184 6,000  Level Miami Center
Tue 02:39:30 AM 27.5717 -81.5281 189° South 160 184 6,000  Level Miami Center
Tue 02:40:33 AM 27.5294 -81.5381 192° South 160 184 6,000  Level Miami Center
Tue 02:41:30 AM 27.4875 -81.5433 186° South 160 184 6,000  Level Miami Center
Tue 02:42:32 AM 27.4433 -81.5531 191° South 160 184 6,000  Level Miami Center
Tue 02:43:33 AM 27.3994 -81.5608 189° South 160 184 6,000  Level Miami Center
Tue 02:44:30 AM 27.3575 -81.5683 189° South 160 184 6,000  Level Miami Center
Tue 02:45:30 AM 27.3133 -81.5736 186° South 160 184 6,000  Level Miami Center
Tue 02:46:33 AM 27.2692 -81.5836 191° South 160 184 6,000  Level Miami Center
Tue 02:47:30 AM 27.2250 -81.5911 189° South 160 184 6,000  Level Miami Center
Tue 02:48:32 AM 27.1811 -81.5986 189° South 160 184 6,000  Level Miami Center
Tue 02:49:30 AM 27.1369 -81.6061 189° South 160 184 6,000  Level Miami Center
Tue 02:50:30 AM 27.0950 -81.6136 189° South 160 184 6,000  Level Miami Center
Tue 02:51:30 AM 27.0508 -81.6236 191° South 160 184 6,000  Level Miami Center
Tue 02:52:30 AM 27.0067 -81.6311 189° South 160 184 6,000  Level Miami Center
Tue 02:53:32 AM 26.9606 -81.6383 188° South 160 184 6,000  Level Miami Center
Tue 02:54:30 AM 26.9164 -81.6461 189° South 160 184 6,000  Level Miami Center
Tue 02:55:31 AM 26.8725 -81.6536 189° South 160 184 6,000  Level Miami Center
Tue 02:56:30 AM 26.8261 -81.6608 188° South 160 184 6,000  Level Miami Center
Tue 02:57:31 AM 26.7822 -81.6683 189° South 160 184 6,000  Level Miami Center
Tue 02:58:30 AM 26.7444 -81.6739 187° South 160 184 6,000  Level Miami Center
Tue 02:59:32 AM 26.6981 -81.6836 191° South 160 184 6,000  Level Miami Center
Tue 03:00:30 AM 26.6539 -81.6933 191° South 160 184 6,000  Level Miami Center
Tue 03:01:31 AM 26.6097 -81.7031 191° South 160 184 6,000 -200 Level Miami Center
Tue 03:02:30 AM 26.5658 -81.7083 186° South 160 184 5,600 -454 Descending Miami Center
Tue 03:03:30 AM 26.5197 -81.7133 186° South 160 184 5,100 -496 Descending Miami Center
Tue 03:04:31 AM 26.4714 -81.7206 188° South 160 184 4,600 -550 Descending Miami Center
Tue 03:05:30 AM 26.4272 -81.7306 191° South 160 184 4,000 -550 Descending Miami Center
Tue 03:06:31 AM 26.3789 -81.7378 188° South 160 184 3,500 -492 Descending Miami Center
Tue 03:07:32 AM 26.3411 -81.7453 190° South 160 184 3,000 -492 Descending Miami Center

Login

Don't have an account? Register now (free) for customized features, flight alerts, and more!